Okatie, South Carolina
Current Conditions -  °F | °C
As of 10:50 AM on Thursday 30 Oct 2014 (Local Time) from KHXD Reporting Station
Broken Clouds Broken Clouds  
Wind Chill: 64°   Ceiling: 1200
Heat Index: 64°   Visibility: 10mi
Dew Point: 59°   Wind: 14mph
Humidity: 83%   Direction: 360°N
Pressure: 30"   Gusts: NA
Location:  32.34°N, 80.86°W
Report Text: KHXD 301450Z 36012KT 10SM BKN012 18/15 A3000
Loading
Personal Weather Stations






























Interactive Weather Map
Tropical Storm Tracking
New forecast layout! Learn more

10-Day Weather Forecast

Advertisements
Track Severe Weather on mobile